sensor_id;sensor_type;location;lat;lon;timestamp;P1;durP1;ratioP1;P2;durP2;ratioP2
30874;SDS011;17581;43.222;27.924;2022-11-20T00:02:22;24.02;;;8.05;;
30874;SDS011;17581;43.222;27.924;2022-11-20T00:04:47;20.35;;;7.38;;
30874;SDS011;17581;43.222;27.924;2022-11-20T00:07:12;33.20;;;8.48;;
30874;SDS011;17581;43.222;27.924;2022-11-20T00:09:38;38.72;;;8.55;;
30874;SDS011;17581;43.222;27.924;2022-11-20T00:12:03;28.05;;;7.07;;
30874;SDS011;17581;43.222;27.924;2022-11-20T00:14:29;27.13;;;6.50;;
30874;SDS011;17581;43.222;27.924;2022-11-20T00:16:54;24.95;;;6.75;;
30874;SDS011;17581;43.222;27.924;2022-11-20T00:19:20;32.53;;;7.97;;
30874;SDS011;17581;43.222;27.924;2022-11-20T00:21:45;28.90;;;8.80;;
30874;SDS011;17581;43.222;27.924;2022-11-20T00:24:10;33.17;;;7.20;;
30874;SDS011;17581;43.222;27.924;2022-11-20T00:26:36;33.92;;;7.28;;
30874;SDS011;17581;43.222;27.924;2022-11-20T00:29:02;39.95;;;7.80;;
30874;SDS011;17581;43.222;27.924;2022-11-20T00:31:27;22.80;;;7.38;;
30874;SDS011;17581;43.222;27.924;2022-11-20T00:33:54;26.60;;;7.20;;
30874;SDS011;17581;43.222;27.924;2022-11-20T00:36:24;31.98;;;6.95;;
30874;SDS011;17581;43.222;27.924;2022-11-20T00:38:51;27.77;;;6.80;;
30874;SDS011;17581;43.222;27.924;2022-11-20T00:41:18;32.22;;;6.82;;
30874;SDS011;17581;43.222;27.924;2022-11-20T00:43:43;27.42;;;7.43;;
30874;SDS011;17581;43.222;27.924;2022-11-20T00:46:10;32.53;;;7.90;;
30874;SDS011;17581;43.222;27.924;2022-11-20T00:48:38;32.45;;;7.93;;
30874;SDS011;17581;43.222;27.924;2022-11-20T00:51:04;40.88;;;7.85;;
30874;SDS011;17581;43.222;27.924;2022-11-20T00:53:29;31.83;;;7.78;;
30874;SDS011;17581;43.222;27.924;2022-11-20T00:55:59;28.77;;;7.10;;
30874;SDS011;17581;43.222;27.924;2022-11-20T00:58:33;31.23;;;8.13;;
30874;SDS011;17581;43.222;27.924;2022-11-20T01:01:01;34.33;;;7.60;;
30874;SDS011;17581;43.222;27.924;2022-11-20T01:03:36;33.55;;;8.25;;
30874;SDS011;17581;43.222;27.924;2022-11-20T01:06:05;34.70;;;6.97;;
30874;SDS011;17581;43.222;27.924;2022-11-20T01:08:33;29.08;;;7.38;;
30874;SDS011;17581;43.222;27.924;2022-11-20T01:11:00;33.25;;;7.30;;
30874;SDS011;17581;43.222;27.924;2022-11-20T01:13:30;22.38;;;5.97;;
30874;SDS011;17581;43.222;27.924;2022-11-20T01:16:24;17.30;;;5.85;;
30874;SDS011;17581;43.222;27.924;2022-11-20T01:18:57;39.08;;;7.40;;
30874;SDS011;17581;43.222;27.924;2022-11-20T01:21:26;30.25;;;5.80;;
30874;SDS011;17581;43.222;27.924;2022-11-20T01:23:54;31.77;;;6.90;;
30874;SDS011;17581;43.222;27.924;2022-11-20T01:26:20;28.40;;;6.13;;
30874;SDS011;17581;43.222;27.924;2022-11-20T01:28:48;31.83;;;6.50;;
30874;SDS011;17581;43.222;27.924;2022-11-20T01:31:15;25.23;;;6.50;;
30874;SDS011;17581;43.222;27.924;2022-11-20T01:33:43;22.67;;;5.57;;
30874;SDS011;17581;43.222;27.924;2022-11-20T01:36:10;24.10;;;6.53;;
30874;SDS011;17581;43.222;27.924;2022-11-20T01:38:36;26.88;;;5.53;;
30874;SDS011;17581;43.222;27.924;2022-11-20T01:41:02;32.30;;;7.18;;
30874;SDS011;17581;43.222;27.924;2022-11-20T01:43:27;19.02;;;5.05;;
30874;SDS011;17581;43.222;27.924;2022-11-20T01:46:01;31.23;;;7.03;;
30874;SDS011;17581;43.222;27.924;2022-11-20T01:48:32;23.35;;;6.35;;
30874;SDS011;17581;43.222;27.924;2022-11-20T01:51:02;38.70;;;8.35;;
30874;SDS011;17581;43.222;27.924;2022-11-20T01:53:32;23.10;;;6.18;;
30874;SDS011;17581;43.222;27.924;2022-11-20T01:56:01;37.50;;;6.45;;
30874;SDS011;17581;43.222;27.924;2022-11-20T01:58:32;22.05;;;5.78;;
30874;SDS011;17581;43.222;27.924;2022-11-20T02:01:00;27.05;;;5.88;;
30874;SDS011;17581;43.222;27.924;2022-11-20T02:03:27;21.90;;;5.97;;
30874;SDS011;17581;43.222;27.924;2022-11-20T02:06:04;31.83;;;5.85;;
30874;SDS011;17581;43.222;27.924;2022-11-20T02:08:37;24.25;;;5.63;;
30874;SDS011;17581;43.222;27.924;2022-11-20T02:11:03;20.35;;;5.40;;
30874;SDS011;17581;43.222;27.924;2022-11-20T02:13:28;29.75;;;7.18;;
30874;SDS011;17581;43.222;27.924;2022-11-20T02:19:09;29.23;;;6.85;;
30874;SDS011;17581;43.222;27.924;2022-11-20T02:24:53;29.95;;;6.57;;
30874;SDS011;17581;43.222;27.924;2022-11-20T02:27:19;23.75;;;5.03;;
30874;SDS011;17581;43.222;27.924;2022-11-20T02:29:59;20.48;;;5.55;;
30874;SDS011;17581;43.222;27.924;2022-11-20T02:32:31;25.05;;;7.07;;
30874;SDS011;17581;43.222;27.924;2022-11-20T02:34:57;25.85;;;5.88;;
30874;SDS011;17581;43.222;27.924;2022-11-20T02:37:23;29.58;;;6.55;;
30874;SDS011;17581;43.222;27.924;2022-11-20T02:39:58;28.20;;;5.78;;
30874;SDS011;17581;43.222;27.924;2022-11-20T02:42:24;28.60;;;7.78;;
30874;SDS011;17581;43.222;27.924;2022-11-20T02:44:49;20.40;;;6.40;;
30874;SDS011;17581;43.222;27.924;2022-11-20T02:47:14;33.97;;;6.82;;
30874;SDS011;17581;43.222;27.924;2022-11-20T02:49:40;34.38;;;6.30;;
30874;SDS011;17581;43.222;27.924;2022-11-20T02:52:05;31.42;;;7.43;;
30874;SDS011;17581;43.222;27.924;2022-11-20T02:54:31;23.08;;;5.78;;
30874;SDS011;17581;43.222;27.924;2022-11-20T02:56:56;38.00;;;7.68;;
30874;SDS011;17581;43.222;27.924;2022-11-20T02:59:22;22.17;;;6.88;;
30874;SDS011;17581;43.222;27.924;2022-11-20T03:01:47;26.77;;;5.88;;
30874;SDS011;17581;43.222;27.924;2022-11-20T03:04:12;29.50;;;6.07;;
30874;SDS011;17581;43.222;27.924;2022-11-20T03:06:38;33.25;;;6.38;;
30874;SDS011;17581;43.222;27.924;2022-11-20T03:09:03;30.67;;;6.55;;
30874;SDS011;17581;43.222;27.924;2022-11-20T03:11:29;29.88;;;5.68;;
30874;SDS011;17581;43.222;27.924;2022-11-20T03:13:54;30.83;;;7.05;;
30874;SDS011;17581;43.222;27.924;2022-11-20T03:16:20;27.02;;;6.10;;
30874;SDS011;17581;43.222;27.924;2022-11-20T03:18:47;30.60;;;5.75;;
30874;SDS011;17581;43.222;27.924;2022-11-20T03:21:13;28.33;;;5.95;;
30874;SDS011;17581;43.222;27.924;2022-11-20T03:23:40;22.73;;;5.82;;
30874;SDS011;17581;43.222;27.924;2022-11-20T03:26:13;25.65;;;6.65;;
30874;SDS011;17581;43.222;27.924;2022-11-20T03:28:41;30.83;;;5.70;;
30874;SDS011;17581;43.222;27.924;2022-11-20T03:31:08;40.35;;;7.18;;
30874;SDS011;17581;43.222;27.924;2022-11-20T03:33:36;23.15;;;5.28;;
30874;SDS011;17581;43.222;27.924;2022-11-20T03:36:02;21.50;;;6.28;;
30874;SDS011;17581;43.222;27.924;2022-11-20T03:38:30;25.45;;;6.50;;
30874;SDS011;17581;43.222;27.924;2022-11-20T03:41:03;30.17;;;5.78;;
30874;SDS011;17581;43.222;27.924;2022-11-20T03:43:32;24.65;;;5.47;;
30874;SDS011;17581;43.222;27.924;2022-11-20T03:45:58;22.08;;;5.53;;
30874;SDS011;17581;43.222;27.924;2022-11-20T03:48:23;38.40;;;6.47;;
30874;SDS011;17581;43.222;27.924;2022-11-20T03:50:49;24.73;;;4.72;;
30874;SDS011;17581;43.222;27.924;2022-11-20T03:53:15;21.38;;;5.82;;
30874;SDS011;17581;43.222;27.924;2022-11-20T03:55:41;30.88;;;5.93;;
30874;SDS011;17581;43.222;27.924;2022-11-20T03:58:07;25.73;;;6.90;;
30874;SDS011;17581;43.222;27.924;2022-11-20T04:00:33;23.55;;;6.68;;
30874;SDS011;17581;43.222;27.924;2022-11-20T04:02:58;16.85;;;4.93;;
30874;SDS011;17581;43.222;27.924;2022-11-20T04:05:24;24.77;;;5.25;;
30874;SDS011;17581;43.222;27.924;2022-11-20T04:07:49;19.35;;;5.05;;
30874;SDS011;17581;43.222;27.924;2022-11-20T04:10:15;25.85;;;5.93;;
30874;SDS011;17581;43.222;27.924;2022-11-20T04:12:40;32.90;;;6.35;;
30874;SDS011;17581;43.222;27.924;2022-11-20T04:15:06;23.50;;;6.72;;
30874;SDS011;17581;43.222;27.924;2022-11-20T04:17:32;21.30;;;5.43;;
30874;SDS011;17581;43.222;27.924;2022-11-20T04:19:57;21.77;;;5.05;;
30874;SDS011;17581;43.222;27.924;2022-11-20T04:22:23;16.88;;;4.93;;
30874;SDS011;17581;43.222;27.924;2022-11-20T04:24:48;21.45;;;5.00;;
30874;SDS011;17581;43.222;27.924;2022-11-20T04:27:13;20.42;;;5.13;;
30874;SDS011;17581;43.222;27.924;2022-11-20T04:29:39;26.58;;;5.55;;
30874;SDS011;17581;43.222;27.924;2022-11-20T04:32:04;31.48;;;5.43;;
30874;SDS011;17581;43.222;27.924;2022-11-20T04:34:30;27.98;;;5.60;;
30874;SDS011;17581;43.222;27.924;2022-11-20T04:36:56;23.42;;;5.43;;
30874;SDS011;17581;43.222;27.924;2022-11-20T04:39:21;28.38;;;4.95;;
30874;SDS011;17581;43.222;27.924;2022-11-20T04:41:47;23.27;;;5.55;;
30874;SDS011;17581;43.222;27.924;2022-11-20T04:44:12;33.97;;;5.30;;
30874;SDS011;17581;43.222;27.924;2022-11-20T04:46:38;30.70;;;5.25;;
30874;SDS011;17581;43.222;27.924;2022-11-20T04:49:06;22.08;;;5.13;;
30874;SDS011;17581;43.222;27.924;2022-11-20T04:51:33;32.38;;;9.98;;
30874;SDS011;17581;43.222;27.924;2022-11-20T04:53:59;21.40;;;5.85;;
30874;SDS011;17581;43.222;27.924;2022-11-20T04:56:25;21.92;;;6.07;;
30874;SDS011;17581;43.222;27.924;2022-11-20T04:58:50;21.52;;;5.75;;
30874;SDS011;17581;43.222;27.924;2022-11-20T05:01:17;27.70;;;4.35;;
30874;SDS011;17581;43.222;27.924;2022-11-20T05:03:46;27.60;;;6.25;;
30874;SDS011;17581;43.222;27.924;2022-11-20T05:06:13;35.55;;;5.40;;
30874;SDS011;17581;43.222;27.924;2022-11-20T05:08:40;23.50;;;5.85;;
30874;SDS011;17581;43.222;27.924;2022-11-20T05:11:09;27.65;;;5.22;;
30874;SDS011;17581;43.222;27.924;2022-11-20T05:13:36;30.27;;;5.65;;
30874;SDS011;17581;43.222;27.924;2022-11-20T05:16:04;30.67;;;4.95;;
30874;SDS011;17581;43.222;27.924;2022-11-20T05:18:31;33.65;;;6.55;;
30874;SDS011;17581;43.222;27.924;2022-11-20T05:20:58;39.47;;;5.32;;
30874;SDS011;17581;43.222;27.924;2022-11-20T05:23:23;23.67;;;5.35;;
30874;SDS011;17581;43.222;27.924;2022-11-20T05:25:51;23.40;;;5.35;;
30874;SDS011;17581;43.222;27.924;2022-11-20T05:28:18;18.55;;;4.80;;
30874;SDS011;17581;43.222;27.924;2022-11-20T05:30:43;41.80;;;6.00;;
30874;SDS011;17581;43.222;27.924;2022-11-20T05:33:08;40.55;;;6.82;;
30874;SDS011;17581;43.222;27.924;2022-11-20T05:35:34;33.17;;;6.15;;
30874;SDS011;17581;43.222;27.924;2022-11-20T05:37:59;36.20;;;5.72;;
30874;SDS011;17581;43.222;27.924;2022-11-20T05:40:25;25.02;;;5.28;;
30874;SDS011;17581;43.222;27.924;2022-11-20T05:42:50;31.85;;;5.72;;
30874;SDS011;17581;43.222;27.924;2022-11-20T05:45:15;33.30;;;7.15;;
30874;SDS011;17581;43.222;27.924;2022-11-20T05:47:41;31.77;;;6.75;;
30874;SDS011;17581;43.222;27.924;2022-11-20T05:50:06;31.50;;;5.43;;
30874;SDS011;17581;43.222;27.924;2022-11-20T05:52:32;33.05;;;5.57;;
30874;SDS011;17581;43.222;27.924;2022-11-20T05:54:57;34.60;;;5.88;;
30874;SDS011;17581;43.222;27.924;2022-11-20T05:57:23;59.80;;;7.60;;
30874;SDS011;17581;43.222;27.924;2022-11-20T05:59:48;28.90;;;4.80;;
30874;SDS011;17581;43.222;27.924;2022-11-20T06:02:14;26.73;;;5.63;;
30874;SDS011;17581;43.222;27.924;2022-11-20T06:04:39;49.33;;;6.68;;
30874;SDS011;17581;43.222;27.924;2022-11-20T06:07:05;24.88;;;5.95;;
30874;SDS011;17581;43.222;27.924;2022-11-20T06:09:31;20.05;;;4.85;;
30874;SDS011;17581;43.222;27.924;2022-11-20T06:11:57;34.78;;;5.63;;
30874;SDS011;17581;43.222;27.924;2022-11-20T06:14:22;38.40;;;5.88;;
30874;SDS011;17581;43.222;27.924;2022-11-20T06:16:48;33.85;;;5.95;;
30874;SDS011;17581;43.222;27.924;2022-11-20T06:19:13;25.55;;;5.40;;
30874;SDS011;17581;43.222;27.924;2022-11-20T06:21:39;33.58;;;6.25;;
30874;SDS011;17581;43.222;27.924;2022-11-20T06:24:05;29.83;;;5.70;;
30874;SDS011;17581;43.222;27.924;2022-11-20T06:26:31;28.77;;;5.13;;
30874;SDS011;17581;43.222;27.924;2022-11-20T06:28:56;22.20;;;5.05;;
30874;SDS011;17581;43.222;27.924;2022-11-20T06:31:25;31.88;;;5.38;;
30874;SDS011;17581;43.222;27.924;2022-11-20T06:33:51;29.83;;;5.45;;
30874;SDS011;17581;43.222;27.924;2022-11-20T06:36:17;34.67;;;6.72;;
30874;SDS011;17581;43.222;27.924;2022-11-20T06:38:44;32.17;;;6.85;;
30874;SDS011;17581;43.222;27.924;2022-11-20T06:41:11;49.47;;;6.30;;
30874;SDS011;17581;43.222;27.924;2022-11-20T06:43:43;27.33;;;6.18;;
30874;SDS011;17581;43.222;27.924;2022-11-20T06:46:10;33.38;;;6.90;;
30874;SDS011;17581;43.222;27.924;2022-11-20T06:48:37;26.33;;;5.38;;
30874;SDS011;17581;43.222;27.924;2022-11-20T06:51:05;25.52;;;5.55;;
30874;SDS011;17581;43.222;27.924;2022-11-20T06:53:32;28.45;;;6.15;;
30874;SDS011;17581;43.222;27.924;2022-11-20T06:55:58;23.10;;;5.68;;
30874;SDS011;17581;43.222;27.924;2022-11-20T06:58:26;29.27;;;5.82;;
30874;SDS011;17581;43.222;27.924;2022-11-20T07:00:53;35.30;;;7.53;;
30874;SDS011;17581;43.222;27.924;2022-11-20T07:03:18;28.17;;;6.10;;
30874;SDS011;17581;43.222;27.924;2022-11-20T07:05:44;40.58;;;6.53;;
30874;SDS011;17581;43.222;27.924;2022-11-20T07:08:11;29.10;;;7.03;;
30874;SDS011;17581;43.222;27.924;2022-11-20T07:10:36;23.92;;;5.95;;
30874;SDS011;17581;43.222;27.924;2022-11-20T07:13:02;41.47;;;6.50;;
30874;SDS011;17581;43.222;27.924;2022-11-20T07:15:27;32.42;;;6.03;;
30874;SDS011;17581;43.222;27.924;2022-11-20T07:17:53;31.27;;;7.10;;
30874;SDS011;17581;43.222;27.924;2022-11-20T07:20:18;31.55;;;6.15;;
30874;SDS011;17581;43.222;27.924;2022-11-20T07:22:44;26.25;;;6.03;;
30874;SDS011;17581;43.222;27.924;2022-11-20T07:25:09;34.17;;;6.78;;
30874;SDS011;17581;43.222;27.924;2022-11-20T07:27:35;27.63;;;5.85;;
30874;SDS011;17581;43.222;27.924;2022-11-20T07:30:01;28.65;;;6.82;;
30874;SDS011;17581;43.222;27.924;2022-11-20T07:32:28;29.88;;;5.35;;
30874;SDS011;17581;43.222;27.924;2022-11-20T07:34:53;29.23;;;4.63;;
30874;SDS011;17581;43.222;27.924;2022-11-20T07:37:18;45.70;;;6.97;;
30874;SDS011;17581;43.222;27.924;2022-11-20T07:39:44;50.55;;;9.15;;
30874;SDS011;17581;43.222;27.924;2022-11-20T07:42:09;26.95;;;6.82;;
30874;SDS011;17581;43.222;27.924;2022-11-20T07:44:37;41.35;;;7.10;;
30874;SDS011;17581;43.222;27.924;2022-11-20T07:47:02;42.50;;;6.90;;
30874;SDS011;17581;43.222;27.924;2022-11-20T07:49:28;49.03;;;16.70;;
30874;SDS011;17581;43.222;27.924;2022-11-20T07:51:53;53.65;;;17.95;;
30874;SDS011;17581;43.222;27.924;2022-11-20T07:54:19;54.53;;;10.85;;
30874;SDS011;17581;43.222;27.924;2022-11-20T07:56:45;35.88;;;7.57;;
30874;SDS011;17581;43.222;27.924;2022-11-20T07:59:11;33.92;;;6.85;;
30874;SDS011;17581;43.222;27.924;2022-11-20T08:01:37;44.78;;;6.57;;
30874;SDS011;17581;43.222;27.924;2022-11-20T08:04:04;63.13;;;8.93;;
30874;SDS011;17581;43.222;27.924;2022-11-20T08:06:30;46.88;;;6.80;;
30874;SDS011;17581;43.222;27.924;2022-11-20T08:08:56;33.22;;;5.97;;
30874;SDS011;17581;43.222;27.924;2022-11-20T08:11:21;31.75;;;6.57;;
30874;SDS011;17581;43.222;27.924;2022-11-20T08:14:06;36.17;;;6.43;;
30874;SDS011;17581;43.222;27.924;2022-11-20T08:16:38;37.78;;;8.07;;
30874;SDS011;17581;43.222;27.924;2022-11-20T08:19:07;38.38;;;7.22;;
30874;SDS011;17581;43.222;27.924;2022-11-20T08:21:32;40.50;;;7.60;;
30874;SDS011;17581;43.222;27.924;2022-11-20T08:23:58;35.33;;;6.38;;
30874;SDS011;17581;43.222;27.924;2022-11-20T08:26:24;28.00;;;7.18;;
30874;SDS011;17581;43.222;27.924;2022-11-20T08:28:53;30.77;;;6.32;;
30874;SDS011;17581;43.222;27.924;2022-11-20T08:31:20;40.00;;;7.20;;
30874;SDS011;17581;43.222;27.924;2022-11-20T08:33:46;35.22;;;6.15;;
30874;SDS011;17581;43.222;27.924;2022-11-20T08:36:12;29.00;;;6.22;;
30874;SDS011;17581;43.222;27.924;2022-11-20T08:38:37;30.83;;;6.40;;
30874;SDS011;17581;43.222;27.924;2022-11-20T08:41:04;36.17;;;6.72;;
30874;SDS011;17581;43.222;27.924;2022-11-20T08:43:48;35.47;;;6.70;;
30874;SDS011;17581;43.222;27.924;2022-11-20T08:46:14;31.45;;;8.07;;
30874;SDS011;17581;43.222;27.924;2022-11-20T08:48:40;47.85;;;8.85;;
30874;SDS011;17581;43.222;27.924;2022-11-20T08:51:06;28.00;;;6.90;;
30874;SDS011;17581;43.222;27.924;2022-11-20T08:53:31;32.17;;;5.88;;
30874;SDS011;17581;43.222;27.924;2022-11-20T08:55:57;29.10;;;5.93;;
30874;SDS011;17581;43.222;27.924;2022-11-20T08:58:23;37.35;;;6.95;;
30874;SDS011;17581;43.222;27.924;2022-11-20T09:00:49;37.47;;;6.35;;
30874;SDS011;17581;43.222;27.924;2022-11-20T09:03:14;25.25;;;6.45;;
30874;SDS011;17581;43.222;27.924;2022-11-20T09:05:39;29.83;;;6.10;;
30874;SDS011;17581;43.222;27.924;2022-11-20T09:08:05;41.13;;;7.07;;
30874;SDS011;17581;43.222;27.924;2022-11-20T09:10:30;29.33;;;6.45;;
30874;SDS011;17581;43.222;27.924;2022-11-20T09:12:57;38.05;;;6.72;;
30874;SDS011;17581;43.222;27.924;2022-11-20T09:15:23;30.23;;;7.05;;
30874;SDS011;17581;43.222;27.924;2022-11-20T09:17:50;40.58;;;6.70;;
30874;SDS011;17581;43.222;27.924;2022-11-20T09:20:23;32.95;;;6.65;;
30874;SDS011;17581;43.222;27.924;2022-11-20T09:22:49;36.90;;;7.03;;
30874;SDS011;17581;43.222;27.924;2022-11-20T09:25:15;28.67;;;6.38;;
30874;SDS011;17581;43.222;27.924;2022-11-20T09:27:41;34.85;;;6.80;;
30874;SDS011;17581;43.222;27.924;2022-11-20T09:30:08;40.08;;;6.47;;
30874;SDS011;17581;43.222;27.924;2022-11-20T09:32:34;46.33;;;7.13;;
30874;SDS011;17581;43.222;27.924;2022-11-20T09:35:00;32.97;;;7.35;;
30874;SDS011;17581;43.222;27.924;2022-11-20T09:37:26;48.22;;;7.05;;
30874;SDS011;17581;43.222;27.924;2022-11-20T09:39:51;25.60;;;7.18;;
30874;SDS011;17581;43.222;27.924;2022-11-20T09:45:18;37.70;;;7.93;;
30874;SDS011;17581;43.222;27.924;2022-11-20T09:56:26;28.35;;;5.65;;
30874;SDS011;17581;43.222;27.924;2022-11-20T09:58:54;38.88;;;6.50;;
30874;SDS011;17581;43.222;27.924;2022-11-20T10:01:26;43.15;;;6.90;;
30874;SDS011;17581;43.222;27.924;2022-11-20T10:03:58;34.58;;;7.50;;
30874;SDS011;17581;43.222;27.924;2022-11-20T10:30:41;42.75;;;8.00;;
30874;SDS011;17581;43.222;27.924;2022-11-20T10:35:48;31.02;;;7.30;;
30874;SDS011;17581;43.222;27.924;2022-11-20T10:40:54;42.45;;;7.38;;
30874;SDS011;17581;43.222;27.924;2022-11-20T10:43:44;34.88;;;5.55;;
30874;SDS011;17581;43.222;27.924;2022-11-20T10:46:17;38.38;;;6.57;;
30874;SDS011;17581;43.222;27.924;2022-11-20T10:48:46;30.10;;;6.72;;
30874;SDS011;17581;43.222;27.924;2022-11-20T11:01:40;29.48;;;5.88;;
30874;SDS011;17581;43.222;27.924;2022-11-20T11:04:13;34.53;;;7.65;;
30874;SDS011;17581;43.222;27.924;2022-11-20T11:09:56;29.65;;;6.43;;
30874;SDS011;17581;43.222;27.924;2022-11-20T11:12:22;30.98;;;6.65;;
30874;SDS011;17581;43.222;27.924;2022-11-20T11:14:53;44.75;;;6.97;;
30874;SDS011;17581;43.222;27.924;2022-11-20T11:19:45;29.90;;;6.50;;
30874;SDS011;17581;43.222;27.924;2022-11-20T11:22:25;29.95;;;6.13;;
30874;SDS011;17581;43.222;27.924;2022-11-20T11:24:53;36.25;;;7.13;;
30874;SDS011;17581;43.222;27.924;2022-11-20T11:27:19;39.78;;;7.68;;
30874;SDS011;17581;43.222;27.924;2022-11-20T11:29:45;50.65;;;9.60;;
30874;SDS011;17581;43.222;27.924;2022-11-20T11:32:15;43.08;;;7.57;;
30874;SDS011;17581;43.222;27.924;2022-11-20T11:34:44;47.83;;;9.15;;
30874;SDS011;17581;43.222;27.924;2022-11-20T11:37:19;36.80;;;9.10;;
30874;SDS011;17581;43.222;27.924;2022-11-20T11:39:49;40.80;;;7.63;;
30874;SDS011;17581;43.222;27.924;2022-11-20T11:42:17;35.20;;;8.35;;
30874;SDS011;17581;43.222;27.924;2022-11-20T11:44:44;38.28;;;8.07;;
30874;SDS011;17581;43.222;27.924;2022-11-20T11:47:31;37.42;;;8.00;;
30874;SDS011;17581;43.222;27.924;2022-11-20T11:50:00;44.40;;;7.90;;
30874;SDS011;17581;43.222;27.924;2022-11-20T11:55:33;35.17;;;7.95;;
30874;SDS011;17581;43.222;27.924;2022-11-20T12:01:24;56.65;;;8.07;;
30874;SDS011;17581;43.222;27.924;2022-11-20T12:06:43;51.03;;;8.10;;
30874;SDS011;17581;43.222;27.924;2022-11-20T12:09:12;35.55;;;6.75;;
30874;SDS011;17581;43.222;27.924;2022-11-20T12:14:19;46.30;;;9.68;;
30874;SDS011;17581;43.222;27.924;2022-11-20T12:16:51;42.70;;;8.30;;
30874;SDS011;17581;43.222;27.924;2022-11-20T12:19:18;33.78;;;6.88;;
30874;SDS011;17581;43.222;27.924;2022-11-20T12:22:02;45.90;;;7.72;;
30874;SDS011;17581;43.222;27.924;2022-11-20T12:30:02;48.75;;;7.78;;
30874;SDS011;17581;43.222;27.924;2022-11-20T12:32:40;38.83;;;8.57;;
30874;SDS011;17581;43.222;27.924;2022-11-20T12:41:15;65.60;;;11.13;;
30874;SDS011;17581;43.222;27.924;2022-11-20T12:52:39;65.28;;;11.85;;
30874;SDS011;17581;43.222;27.924;2022-11-20T12:55:11;51.90;;;10.55;;
30874;SDS011;17581;43.222;27.924;2022-11-20T12:57:57;53.85;;;10.48;;
30874;SDS011;17581;43.222;27.924;2022-11-20T13:00:27;61.15;;;9.73;;
30874;SDS011;17581;43.222;27.924;2022-11-20T13:03:32;70.55;;;9.05;;
30874;SDS011;17581;43.222;27.924;2022-11-20T13:08:32;47.80;;;8.07;;
30874;SDS011;17581;43.222;27.924;2022-11-20T13:16:16;66.40;;;13.23;;
30874;SDS011;17581;43.222;27.924;2022-11-20T13:18:50;62.70;;;10.90;;
30874;SDS011;17581;43.222;27.924;2022-11-20T13:21:38;65.55;;;10.48;;
30874;SDS011;17581;43.222;27.924;2022-11-20T13:24:07;54.30;;;9.00;;
30874;SDS011;17581;43.222;27.924;2022-11-20T13:26:44;61.60;;;11.77;;
30874;SDS011;17581;43.222;27.924;2022-11-20T13:29:16;39.90;;;8.90;;
30874;SDS011;17581;43.222;27.924;2022-11-20T13:31:44;49.17;;;8.15;;
30874;SDS011;17581;43.222;27.924;2022-11-20T13:34:12;52.17;;;9.85;;
30874;SDS011;17581;43.222;27.924;2022-11-20T13:36:49;65.90;;;9.15;;
30874;SDS011;17581;43.222;27.924;2022-11-20T13:39:33;58.13;;;9.57;;
30874;SDS011;17581;43.222;27.924;2022-11-20T13:42:01;57.10;;;9.73;;
30874;SDS011;17581;43.222;27.924;2022-11-20T13:44:39;53.47;;;10.25;;
30874;SDS011;17581;43.222;27.924;2022-11-20T13:50:13;70.93;;;9.25;;
30874;SDS011;17581;43.222;27.924;2022-11-20T13:58:24;63.92;;;10.88;;
30874;SDS011;17581;43.222;27.924;2022-11-20T14:03:46;70.85;;;9.73;;
30874;SDS011;17581;43.222;27.924;2022-11-20T14:06:20;58.60;;;9.43;;
30874;SDS011;17581;43.222;27.924;2022-11-20T14:08:52;61.03;;;9.90;;
30874;SDS011;17581;43.222;27.924;2022-11-20T14:14:19;68.75;;;11.10;;
30874;SDS011;17581;43.222;27.924;2022-11-20T14:16:44;72.50;;;9.60;;
30874;SDS011;17581;43.222;27.924;2022-11-20T14:21:44;54.90;;;10.35;;
30874;SDS011;17581;43.222;27.924;2022-11-20T14:24:11;68.13;;;9.77;;
30874;SDS011;17581;43.222;27.924;2022-11-20T14:26:46;57.83;;;9.38;;
30874;SDS011;17581;43.222;27.924;2022-11-20T14:29:17;78.68;;;11.65;;
30874;SDS011;17581;43.222;27.924;2022-11-20T14:31:44;63.53;;;12.07;;
30874;SDS011;17581;43.222;27.924;2022-11-20T14:34:18;63.15;;;11.93;;
30874;SDS011;17581;43.222;27.924;2022-11-20T14:36:48;49.65;;;10.10;;
30874;SDS011;17581;43.222;27.924;2022-11-20T14:39:20;84.22;;;12.48;;
30874;SDS011;17581;43.222;27.924;2022-11-20T14:41:51;65.15;;;11.80;;
30874;SDS011;17581;43.222;27.924;2022-11-20T14:44:17;82.15;;;12.93;;
30874;SDS011;17581;43.222;27.924;2022-11-20T14:46:45;76.40;;;11.70;;
30874;SDS011;17581;43.222;27.924;2022-11-20T14:49:10;52.95;;;12.02;;
30874;SDS011;17581;43.222;27.924;2022-11-20T14:51:37;71.40;;;11.13;;
30874;SDS011;17581;43.222;27.924;2022-11-20T14:54:14;70.55;;;11.82;;
30874;SDS011;17581;43.222;27.924;2022-11-20T14:56:42;55.72;;;12.10;;
30874;SDS011;17581;43.222;27.924;2022-11-20T14:59:29;68.00;;;12.38;;
30874;SDS011;17581;43.222;27.924;2022-11-20T15:02:16;80.10;;;12.35;;
30874;SDS011;17581;43.222;27.924;2022-11-20T15:04:48;69.78;;;11.25;;
30874;SDS011;17581;43.222;27.924;2022-11-20T15:07:28;50.55;;;10.18;;
30874;SDS011;17581;43.222;27.924;2022-11-20T15:09:59;64.18;;;10.52;;
30874;SDS011;17581;43.222;27.924;2022-11-20T15:12:26;95.45;;;13.52;;
30874;SDS011;17581;43.222;27.924;2022-11-20T15:14:51;50.70;;;10.32;;
30874;SDS011;17581;43.222;27.924;2022-11-20T15:17:17;74.25;;;11.85;;
30874;SDS011;17581;43.222;27.924;2022-11-20T15:19:42;78.03;;;14.60;;
30874;SDS011;17581;43.222;27.924;2022-11-20T15:22:09;69.97;;;14.40;;
30874;SDS011;17581;43.222;27.924;2022-11-20T15:24:38;88.57;;;14.20;;
30874;SDS011;17581;43.222;27.924;2022-11-20T15:27:03;84.30;;;12.20;;
30874;SDS011;17581;43.222;27.924;2022-11-20T15:29:29;76.95;;;11.15;;
30874;SDS011;17581;43.222;27.924;2022-11-20T15:31:54;70.80;;;13.30;;
30874;SDS011;17581;43.222;27.924;2022-11-20T15:34:21;61.70;;;15.02;;
30874;SDS011;17581;43.222;27.924;2022-11-20T15:36:46;75.07;;;13.82;;
30874;SDS011;17581;43.222;27.924;2022-11-20T15:39:11;81.35;;;12.43;;
30874;SDS011;17581;43.222;27.924;2022-11-20T15:41:37;78.65;;;16.50;;
30874;SDS011;17581;43.222;27.924;2022-11-20T15:44:03;67.72;;;12.60;;
30874;SDS011;17581;43.222;27.924;2022-11-20T15:46:30;78.10;;;14.30;;
30874;SDS011;17581;43.222;27.924;2022-11-20T15:49:02;68.13;;;13.93;;
30874;SDS011;17581;43.222;27.924;2022-11-20T15:51:31;212.57;;;94.80;;
30874;SDS011;17581;43.222;27.924;2022-11-20T15:54:18;85.32;;;17.33;;
30874;SDS011;17581;43.222;27.924;2022-11-20T15:56:46;80.22;;;16.80;;
30874;SDS011;17581;43.222;27.924;2022-11-20T15:59:13;111.10;;;21.35;;
30874;SDS011;17581;43.222;27.924;2022-11-20T16:01:42;80.15;;;16.60;;
30874;SDS011;17581;43.222;27.924;2022-11-20T16:04:14;94.50;;;18.25;;
30874;SDS011;17581;43.222;27.924;2022-11-20T16:06:41;76.72;;;14.80;;
30874;SDS011;17581;43.222;27.924;2022-11-20T16:09:07;88.13;;;15.85;;
30874;SDS011;17581;43.222;27.924;2022-11-20T16:11:33;91.30;;;17.77;;
30874;SDS011;17581;43.222;27.924;2022-11-20T16:14:01;107.30;;;18.15;;
30874;SDS011;17581;43.222;27.924;2022-11-20T16:16:46;93.07;;;14.50;;
30874;SDS011;17581;43.222;27.924;2022-11-20T16:19:13;77.53;;;16.85;;
30874;SDS011;17581;43.222;27.924;2022-11-20T16:21:39;68.63;;;15.23;;
30874;SDS011;17581;43.222;27.924;2022-11-20T16:24:06;64.32;;;14.52;;
30874;SDS011;17581;43.222;27.924;2022-11-20T16:26:34;85.40;;;16.75;;